createdAt,value
2018-11-10T00:00:42.779Z,31.37
2018-11-10T00:03:11.207Z,28.30
2018-11-10T00:05:39.640Z,32.90
2018-11-10T00:08:08.154Z,30.10
2018-11-10T00:10:36.557Z,31.10
2018-11-10T00:13:05.289Z,30.07
2018-11-10T00:15:33.708Z,29.83
2018-11-10T00:18:02.166Z,28.27
2018-11-10T00:20:30.568Z,29.43
2018-11-10T00:22:59.012Z,28.80
2018-11-10T00:25:27.420Z,28.47
2018-11-10T00:27:55.928Z,30.30
2018-11-10T00:30:24.360Z,28.50
2018-11-10T00:32:52.809Z,27.70
2018-11-10T00:35:21.241Z,28.60
2018-11-10T00:37:49.714Z,28.43
2018-11-10T00:40:18.141Z,27.67
2018-11-10T00:42:46.700Z,28.63
2018-11-10T00:45:15.163Z,26.07
2018-11-10T00:47:43.627Z,27.80
2018-11-10T00:50:12.072Z,25.30
2018-11-10T00:52:40.564Z,27.33
2018-11-10T00:55:09.223Z,27.10
2018-11-10T00:57:37.667Z,26.70
2018-11-10T01:00:06.571Z,26.17
2018-11-10T01:02:35.041Z,26.67
2018-11-10T01:05:03.532Z,29.60
2018-11-10T01:07:32.544Z,27.00
2018-11-10T01:10:00.979Z,28.93
2018-11-10T01:12:29.451Z,28.43
2018-11-10T01:14:57.985Z,27.73
2018-11-10T01:17:26.413Z,29.90
2018-11-10T01:19:54.853Z,28.37
2018-11-10T01:22:23.272Z,25.70
2018-11-10T01:24:51.704Z,31.73
2018-11-10T01:27:20.148Z,29.60
2018-11-10T01:29:48.627Z,27.07
2018-11-10T01:32:17.102Z,29.80
2018-11-10T01:34:45.528Z,29.47
2018-11-10T01:37:13.976Z,25.77
2018-11-10T01:39:42.404Z,25.90
2018-11-10T01:42:10.819Z,26.30
2018-11-10T01:44:39.256Z,29.07
2018-11-10T01:47:07.701Z,29.60
2018-11-10T01:49:36.137Z,27.33
2018-11-10T01:52:04.617Z,28.13
2018-11-10T01:54:33.061Z,27.97
2018-11-10T01:57:01.477Z,28.20
2018-11-10T01:59:29.908Z,28.13
2018-11-10T02:01:58.316Z,29.10
2018-11-10T02:04:26.744Z,27.53
2018-11-10T02:06:55.169Z,27.33
2018-11-10T02:09:23.628Z,27.87
2018-11-10T02:11:52.044Z,29.87
2018-11-10T02:14:20.477Z,26.47
2018-11-10T02:16:48.924Z,25.83
2018-11-10T02:19:17.349Z,29.17
2018-11-10T02:21:45.809Z,25.80
2018-11-10T02:24:14.237Z,27.30
2018-11-10T02:26:42.750Z,25.47
2018-11-10T02:29:11.180Z,25.83
2018-11-10T02:31:39.612Z,25.90
2018-11-10T02:34:08.068Z,26.60
2018-11-10T02:36:36.552Z,28.60
2018-11-10T02:39:07.500Z,27.13
2018-11-10T02:41:36.039Z,27.40
2018-11-10T02:44:04.524Z,27.00
2018-11-10T02:46:32.960Z,27.27
2018-11-10T02:49:01.428Z,27.30
2018-11-10T02:51:29.864Z,29.60
2018-11-10T02:53:58.275Z,31.80
2018-11-10T02:56:26.768Z,27.30
2018-11-10T02:58:55.179Z,29.43
2018-11-10T03:01:23.616Z,28.03
2018-11-10T03:03:52.036Z,29.77
2018-11-10T03:06:20.465Z,28.43
2018-11-10T03:08:48.885Z,27.70
2018-11-10T03:11:17.332Z,28.70
2018-11-10T03:13:45.756Z,27.53
2018-11-10T03:16:14.239Z,28.77
2018-11-10T03:18:42.636Z,28.00
2018-11-10T03:21:11.081Z,30.37
2018-11-10T03:23:39.500Z,26.87
2018-11-10T03:26:07.948Z,29.37
2018-11-10T03:28:36.368Z,26.70
2018-11-10T03:31:04.838Z,29.43
2018-11-10T03:33:33.274Z,28.77
2018-11-10T03:36:01.697Z,27.70
2018-11-10T03:38:30.172Z,26.87
2018-11-10T03:40:58.621Z,28.20
2018-11-10T03:43:27.368Z,27.63
2018-11-10T03:45:57.197Z,25.23
2018-11-10T03:48:25.628Z,30.40
2018-11-10T03:50:54.036Z,26.27
2018-11-10T03:53:22.500Z,28.77
2018-11-10T03:55:50.920Z,29.80
2018-11-10T03:58:19.392Z,26.67
2018-11-10T04:00:47.848Z,32.20
2018-11-10T04:03:16.289Z,29.00
2018-11-10T04:05:44.704Z,27.43
2018-11-10T04:08:13.133Z,30.00
2018-11-10T04:10:41.549Z,28.33
2018-11-10T04:13:09.975Z,29.27
2018-11-10T04:15:38.442Z,27.57
2018-11-10T04:18:06.884Z,28.90
2018-11-10T04:20:35.312Z,27.90
2018-11-10T04:23:03.748Z,27.67
2018-11-10T04:25:32.161Z,28.30
2018-11-10T04:28:00.632Z,30.37
2018-11-10T04:30:29.057Z,27.20
2018-11-10T04:32:57.484Z,28.70
2018-11-10T04:35:25.936Z,28.37
2018-11-10T04:37:54.359Z,29.43
2018-11-10T04:40:22.798Z,29.60
2018-11-10T04:42:51.208Z,28.00
2018-11-10T04:45:19.644Z,30.60
2018-11-10T04:47:48.172Z,29.33
2018-11-10T04:50:16.628Z,30.17
2018-11-10T04:52:45.056Z,31.60
2018-11-10T04:55:13.532Z,32.23
2018-11-10T04:57:42.298Z,30.60
2018-11-10T05:00:13.445Z,30.03
2018-11-10T05:02:42.334Z,31.27
2018-11-10T05:05:10.833Z,28.50
2018-11-10T05:07:39.280Z,30.77
2018-11-10T05:10:08.817Z,29.73
2018-11-10T05:12:37.389Z,31.77
2018-11-10T05:15:07.059Z,28.40
2018-11-10T05:17:35.509Z,30.27
2018-11-10T05:20:04.218Z,30.07
2018-11-10T05:22:32.709Z,30.93
2018-11-10T05:25:01.159Z,30.00
2018-11-10T05:27:29.732Z,31.87
2018-11-10T05:29:58.397Z,31.97
2018-11-10T05:32:26.887Z,28.80
2018-11-10T05:34:55.322Z,29.03
2018-11-10T05:37:23.796Z,28.53
2018-11-10T05:39:52.228Z,31.80
2018-11-10T05:42:20.709Z,29.50
2018-11-10T05:44:49.148Z,31.73
2018-11-10T05:47:17.608Z,31.30
2018-11-10T05:49:46.044Z,29.83
2018-11-10T05:52:14.500Z,28.80
2018-11-10T05:54:42.923Z,30.33
2018-11-10T05:57:11.518Z,29.50
2018-11-10T05:59:39.878Z,30.87
2018-11-10T06:02:08.376Z,28.60
2018-11-10T06:04:36.836Z,30.87
2018-11-10T06:07:05.424Z,33.93
2018-11-10T06:09:33.907Z,29.80
2018-11-10T06:12:02.333Z,31.23
2018-11-10T06:14:30.756Z,29.43
2018-11-10T06:16:59.220Z,30.63
2018-11-10T06:19:27.653Z,28.13
2018-11-10T06:21:56.100Z,31.40
2018-11-10T06:24:24.571Z,27.93
2018-11-10T06:26:53.048Z,29.63
2018-11-10T06:29:21.489Z,29.67
2018-11-10T06:31:49.928Z,29.80
2018-11-10T06:34:18.387Z,29.10
2018-11-10T06:36:46.853Z,27.50
2018-11-10T06:39:16.146Z,27.50
2018-11-10T06:41:46.045Z,27.63
2018-11-10T06:44:14.476Z,28.50
2018-11-10T06:46:42.915Z,29.90
2018-11-10T06:49:11.345Z,29.57
2018-11-10T06:51:39.841Z,25.40
2018-11-10T06:54:08.295Z,28.13
2018-11-10T06:56:36.752Z,28.70
2018-11-10T06:59:06.355Z,27.83
2018-11-10T07:01:34.786Z,33.53
2018-11-10T07:04:03.339Z,28.90
2018-11-10T07:06:37.049Z,26.27
2018-11-10T07:09:08.301Z,24.90
2018-11-10T07:11:36.755Z,27.90
2018-11-10T07:14:05.475Z,29.80
2018-11-10T07:16:33.920Z,28.40
2018-11-10T07:19:02.365Z,28.10
2018-11-10T07:21:30.788Z,27.50
2018-11-10T07:23:59.236Z,27.93
2018-11-10T07:26:27.693Z,27.57
2018-11-10T07:28:56.131Z,27.00
2018-11-10T07:31:24.657Z,27.93
2018-11-10T07:33:53.112Z,30.10
2018-11-10T07:36:21.556Z,28.03
2018-11-10T07:38:49.996Z,25.80
2018-11-10T07:41:18.416Z,24.20
2018-11-10T07:43:46.875Z,29.20
2018-11-10T07:46:15.347Z,28.17
2018-11-10T07:48:43.788Z,28.40
2018-11-10T07:51:12.282Z,30.87
2018-11-10T07:53:40.705Z,23.80
2018-11-10T07:56:09.487Z,26.70
2018-11-10T07:58:37.942Z,26.70
2018-11-10T08:01:06.573Z,27.23
2018-11-10T08:03:35.027Z,28.47
2018-11-10T08:06:03.514Z,27.07
2018-11-10T08:08:31.932Z,28.37
2018-11-10T08:11:00.360Z,26.17
2018-11-10T08:13:28.805Z,27.07
2018-11-10T08:15:57.236Z,27.20
2018-11-10T08:18:25.741Z,28.13
2018-11-10T08:20:54.163Z,29.83
2018-11-10T08:23:22.598Z,29.87
2018-11-10T08:25:51.048Z,28.63
2018-11-10T08:28:19.496Z,28.00
2018-11-10T08:30:47.943Z,30.10
2018-11-10T08:33:16.384Z,28.87
2018-11-10T08:35:44.844Z,25.63
2018-11-10T08:38:13.272Z,29.17
2018-11-10T08:40:41.724Z,26.93
2018-11-10T08:43:10.144Z,27.20
2018-11-10T08:45:38.592Z,29.43
2018-11-10T08:48:07.044Z,27.27
2018-11-10T08:50:35.496Z,28.30
2018-11-10T08:53:03.939Z,29.37
2018-11-10T08:55:32.413Z,28.83
2018-11-10T08:58:00.862Z,30.30
2018-11-10T09:00:29.356Z,29.17
2018-11-10T09:02:57.788Z,26.93
2018-11-10T09:05:26.231Z,30.13
2018-11-10T09:07:54.664Z,27.80
2018-11-10T09:10:23.112Z,26.00
2018-11-10T09:12:51.584Z,29.30
2018-11-10T09:15:20.077Z,28.00
2018-11-10T09:17:48.571Z,26.23
2018-11-10T09:20:17.483Z,26.30
2018-11-10T09:22:45.949Z,26.23
2018-11-10T09:25:15.784Z,24.83
2018-11-10T09:27:44.306Z,25.20
2018-11-10T09:30:14.152Z,24.33
2018-11-10T09:32:42.829Z,27.33
2018-11-10T09:35:12.360Z,26.47
2018-11-10T09:37:40.832Z,27.70
2018-11-10T09:40:11.980Z,26.50
2018-11-10T09:42:40.600Z,26.37
2018-11-10T09:45:10.676Z,24.70
2018-11-10T09:47:39.274Z,25.73
2018-11-10T09:50:11.457Z,24.83
2018-11-10T09:52:40.004Z,24.53
2018-11-10T09:55:08.485Z,26.73
2018-11-10T09:57:37.519Z,28.43
2018-11-10T10:00:09.344Z,26.37
2018-11-10T10:02:38.302Z,26.47
2018-11-10T10:05:06.484Z,27.10
2018-11-10T10:07:34.927Z,26.47
2018-11-10T10:10:03.412Z,29.27
2018-11-10T10:12:31.877Z,28.70
2018-11-10T10:15:00.308Z,25.77
2018-11-10T10:17:28.767Z,29.90
2018-11-10T10:19:57.209Z,28.60
2018-11-10T10:22:25.657Z,27.00
2018-11-10T10:24:54.136Z,23.10
2018-11-10T10:27:22.644Z,28.27
2018-11-10T10:29:51.070Z,27.20
2018-11-10T10:32:19.529Z,24.93
2018-11-10T10:34:48.166Z,26.57
2018-11-10T10:37:16.436Z,27.27
2018-11-10T10:39:44.905Z,26.13
2018-11-10T10:42:13.355Z,27.30
2018-11-10T10:44:41.785Z,29.67
2018-11-10T10:47:10.260Z,25.10
2018-11-10T10:49:38.696Z,26.50
2018-11-10T10:52:07.140Z,25.67
2018-11-10T10:54:35.616Z,24.17
2018-11-10T10:57:04.132Z,26.60
2018-11-10T10:59:32.552Z,26.50
2018-11-10T11:02:06.292Z,23.63
2018-11-10T11:04:40.008Z,24.27
2018-11-10T11:07:08.447Z,26.53
2018-11-10T11:09:36.968Z,25.60
2018-11-10T11:12:05.380Z,27.20
2018-11-10T11:14:33.832Z,25.53
2018-11-10T11:17:02.250Z,26.70
2018-11-10T11:19:30.709Z,27.97
2018-11-10T11:21:59.181Z,27.10
2018-11-10T11:24:27.620Z,28.67
2018-11-10T11:26:56.068Z,26.20
2018-11-10T11:29:24.655Z,28.13
2018-11-10T11:31:53.040Z,27.60
2018-11-10T11:34:21.504Z,26.40
2018-11-10T11:36:50.032Z,26.53
2018-11-10T11:39:18.517Z,24.83
2018-11-10T11:41:47.025Z,28.73
2018-11-10T11:44:15.424Z,28.77
2018-11-10T11:46:43.859Z,28.67
2018-11-10T11:49:12.328Z,25.57
2018-11-10T11:51:40.845Z,29.10
2018-11-10T11:54:09.304Z,27.10
2018-11-10T11:56:37.745Z,25.47
2018-11-10T11:59:06.652Z,29.93
2018-11-10T12:01:35.092Z,27.17
2018-11-10T12:04:03.552Z,27.40
2018-11-10T12:06:32.012Z,28.13
2018-11-10T12:09:00.445Z,27.40
2018-11-10T12:11:28.895Z,25.57
2018-11-10T12:13:57.321Z,25.00
2018-11-10T12:16:27.712Z,27.73
2018-11-10T12:18:54.249Z,26.43
2018-11-10T12:21:22.719Z,25.77
2018-11-10T12:23:51.161Z,27.60
2018-11-10T12:26:19.648Z,26.37
2018-11-10T12:28:48.071Z,23.90
2018-11-10T12:31:16.536Z,24.20
2018-11-10T12:33:44.968Z,26.00
2018-11-10T12:36:13.416Z,25.60
2018-11-10T12:38:41.869Z,25.33
2018-11-10T12:41:10.337Z,25.80
2018-11-10T12:43:38.804Z,27.83
2018-11-10T12:46:07.256Z,24.97
2018-11-10T12:48:35.680Z,27.00
2018-11-10T12:51:04.429Z,27.03
2018-11-10T12:53:32.864Z,25.27
2018-11-10T12:56:01.321Z,26.33
2018-11-10T12:58:29.744Z,28.60
2018-11-10T13:00:58.197Z,27.23
2018-11-10T13:03:26.627Z,26.97
2018-11-10T13:05:55.076Z,25.77
2018-11-10T13:08:23.513Z,25.00
2018-11-10T13:10:52.001Z,25.63
2018-11-10T13:13:20.489Z,26.10
2018-11-10T13:15:48.936Z,24.73
2018-11-10T13:18:17.394Z,24.57
2018-11-10T13:20:45.890Z,26.90
2018-11-10T13:23:14.372Z,25.07
2018-11-10T13:25:42.812Z,22.23
2018-11-10T13:28:11.278Z,24.33
2018-11-10T13:30:39.717Z,22.60
2018-11-10T13:33:08.285Z,27.70
2018-11-10T13:35:36.740Z,25.80
2018-11-10T13:38:05.455Z,24.30
2018-11-10T13:40:33.900Z,26.60
2018-11-10T13:43:02.365Z,26.30
2018-11-10T13:45:30.930Z,25.07
2018-11-10T13:47:59.414Z,22.20
2018-11-10T13:50:27.929Z,22.10
2018-11-10T13:52:56.783Z,20.10
2018-11-10T13:55:24.823Z,23.60
2018-11-10T13:57:53.285Z,24.00
2018-11-10T14:00:21.729Z,22.43
2018-11-10T14:02:50.203Z,22.27
2018-11-10T14:05:18.659Z,25.87
2018-11-10T14:07:47.122Z,25.20
2018-11-10T14:10:16.240Z,21.83
2018-11-10T14:12:45.742Z,23.63
2018-11-10T14:15:14.148Z,22.80
2018-11-10T14:17:43.085Z,22.20
2018-11-10T14:20:13.392Z,20.70
2018-11-10T14:22:41.865Z,25.07
2018-11-10T14:25:11.990Z,23.43
2018-11-10T14:27:41.208Z,20.90
2018-11-10T14:30:11.832Z,24.57
2018-11-10T14:32:40.911Z,19.67
2018-11-10T14:35:10.128Z,19.43
2018-11-10T14:37:38.588Z,20.53
2018-11-10T14:40:08.731Z,25.20
2018-11-10T14:42:37.553Z,24.80
2018-11-10T14:45:07.476Z,21.57
2018-11-10T14:47:35.954Z,24.13
2018-11-10T14:50:04.653Z,19.50
2018-11-10T14:52:33.139Z,23.83
2018-11-10T14:55:01.564Z,20.20
2018-11-10T14:57:30.016Z,24.00
2018-11-10T14:59:58.459Z,20.40
2018-11-10T15:02:26.897Z,24.90
2018-11-10T15:04:55.400Z,23.57
2018-11-10T15:07:23.835Z,18.87
2018-11-10T15:09:52.284Z,22.07
2018-11-10T15:12:20.794Z,21.17
2018-11-10T15:14:49.237Z,22.03
2018-11-10T15:17:17.672Z,21.43
2018-11-10T15:19:46.139Z,21.30
2018-11-10T15:22:14.580Z,22.90
2018-11-10T15:24:43.042Z,22.43
2018-11-10T15:27:11.525Z,18.63
2018-11-10T15:29:40.032Z,19.37
2018-11-10T15:32:08.489Z,20.80
2018-11-10T15:34:36.928Z,20.37
2018-11-10T15:37:05.552Z,19.47
2018-11-10T15:39:34.040Z,16.10
2018-11-10T15:42:02.500Z,16.53
2018-11-10T15:44:30.936Z,17.60
2018-11-10T15:46:59.404Z,17.83
2018-11-10T15:49:27.944Z,18.40
2018-11-10T15:51:56.393Z,19.17
2018-11-10T15:54:24.833Z,17.00
2018-11-10T15:56:53.365Z,21.20
2018-11-10T15:59:21.798Z,20.27
2018-11-10T16:01:50.262Z,20.97
2018-11-10T16:04:18.720Z,20.47
2018-11-10T16:06:47.171Z,18.10
2018-11-10T16:09:15.699Z,17.57
2018-11-10T16:11:44.072Z,15.30
2018-11-10T16:14:12.508Z,14.40
2018-11-10T16:16:40.955Z,12.97
2018-11-10T16:19:09.383Z,13.10
2018-11-10T16:21:37.828Z,12.47
2018-11-10T16:24:06.291Z,16.90
2018-11-10T16:26:34.763Z,12.50
2018-11-10T16:29:03.201Z,15.37
2018-11-10T16:31:31.640Z,13.40
2018-11-10T16:34:00.068Z,16.67
2018-11-10T16:36:28.511Z,16.40
2018-11-10T16:38:56.944Z,16.20
2018-11-10T16:41:25.396Z,13.00
2018-11-10T16:43:53.833Z,16.63
2018-11-10T16:46:22.289Z,15.73
2018-11-10T16:48:50.729Z,13.80
2018-11-10T16:51:19.225Z,14.27
2018-11-10T16:53:47.665Z,18.40
2018-11-10T16:56:16.141Z,18.30
2018-11-10T16:58:44.640Z,16.93
2018-11-10T17:01:13.101Z,14.10
2018-11-10T17:03:41.536Z,16.77
2018-11-10T17:06:09.968Z,18.10
2018-11-10T17:08:38.460Z,18.73
2018-11-10T17:11:06.970Z,18.30
2018-11-10T17:13:35.436Z,17.30
2018-11-10T17:16:03.856Z,13.87
2018-11-10T17:18:32.311Z,16.07
2018-11-10T17:21:00.760Z,15.33
2018-11-10T17:23:29.207Z,16.07
2018-11-10T17:25:57.636Z,13.50
2018-11-10T17:28:26.096Z,16.57
2018-11-10T17:30:54.529Z,14.63
2018-11-10T17:33:22.977Z,16.53
2018-11-10T17:35:51.424Z,15.40
2018-11-10T17:38:19.880Z,13.90
2018-11-10T17:40:48.304Z,15.00
2018-11-10T17:43:16.763Z,20.10
2018-11-10T17:45:45.209Z,22.70
2018-11-10T17:48:13.725Z,23.73
2018-11-10T17:50:42.144Z,18.93
2018-11-10T17:53:10.737Z,19.60
2018-11-10T17:55:39.176Z,17.57
2018-11-10T17:58:07.634Z,14.60
2018-11-10T18:00:36.073Z,16.43
2018-11-10T18:03:04.836Z,13.67
2018-11-10T18:05:33.261Z,14.70
2018-11-10T18:08:01.749Z,16.87
2018-11-10T18:10:30.177Z,19.70
2018-11-10T18:12:58.652Z,20.93
2018-11-10T18:15:27.084Z,19.30
2018-11-10T18:17:55.516Z,20.60
2018-11-10T18:20:23.968Z,19.63
2018-11-10T18:22:53.237Z,21.13
2018-11-10T18:25:21.779Z,19.53
2018-11-10T18:27:50.256Z,17.70
2018-11-10T18:30:18.703Z,15.90
2018-11-10T18:32:47.263Z,22.33
2018-11-10T18:35:15.636Z,20.93
2018-11-10T18:37:44.075Z,19.70
2018-11-10T18:40:12.540Z,18.60
2018-11-10T18:42:40.998Z,17.37
2018-11-10T18:45:10.396Z,19.23
2018-11-10T18:47:39.380Z,17.27
2018-11-10T18:50:09.720Z,20.93
2018-11-10T18:52:38.156Z,25.40
2018-11-10T18:55:06.680Z,21.00
2018-11-10T18:57:35.236Z,21.07
2018-11-10T19:00:03.665Z,17.80
2018-11-10T19:02:32.096Z,18.17
2018-11-10T19:05:00.557Z,14.33
2018-11-10T19:07:29.023Z,15.70
2018-11-10T19:09:57.468Z,18.10
2018-11-10T19:12:25.928Z,17.33
2018-11-10T19:14:54.369Z,19.50
2018-11-10T19:17:22.804Z,18.30
2018-11-10T19:19:51.264Z,18.10
2018-11-10T19:22:19.699Z,17.90
2018-11-10T19:24:48.139Z,17.33
2018-11-10T19:27:16.583Z,17.97
2018-11-10T19:29:45.064Z,18.80
2018-11-10T19:32:13.500Z,16.83
2018-11-10T19:34:41.971Z,21.13
2018-11-10T19:37:10.403Z,19.77
2018-11-10T19:39:38.864Z,17.20
2018-11-10T19:42:07.291Z,17.60
2018-11-10T19:44:35.807Z,16.30
2018-11-10T19:47:04.216Z,18.10
2018-11-10T19:49:32.656Z,19.43
2018-11-10T19:52:01.323Z,15.27
2018-11-10T19:54:29.572Z,19.83
2018-11-10T19:56:58.035Z,18.00
2018-11-10T19:59:26.469Z,15.30
2018-11-10T20:01:54.920Z,17.57
2018-11-10T20:04:23.352Z,18.80
2018-11-10T20:06:51.878Z,16.53
2018-11-10T20:09:20.465Z,17.57
2018-11-10T20:11:48.928Z,19.80
2018-11-10T20:14:17.376Z,18.70
2018-11-10T20:16:45.849Z,21.90
2018-11-10T20:19:14.314Z,22.10
2018-11-10T20:21:43.064Z,18.90
2018-11-10T20:24:11.510Z,16.63
2018-11-10T20:26:40.040Z,14.40
2018-11-10T20:29:08.785Z,15.70
2018-11-10T20:31:37.327Z,19.77
2018-11-10T20:34:05.798Z,14.87
2018-11-10T20:36:34.268Z,13.30
2018-11-10T20:39:02.861Z,13.53
2018-11-10T20:41:31.277Z,16.40
2018-11-10T20:43:59.705Z,12.43
2018-11-10T20:46:28.148Z,13.83
2018-11-10T20:48:56.575Z,13.40
2018-11-10T20:51:25.032Z,12.80
2018-11-10T20:53:53.456Z,13.57
2018-11-10T20:56:21.980Z,13.00
2018-11-10T20:58:50.432Z,17.10
2018-11-10T21:01:18.884Z,16.70
2018-11-10T21:03:47.363Z,19.53
2018-11-10T21:06:15.856Z,19.63
2018-11-10T21:08:44.337Z,18.47
2018-11-10T21:11:12.776Z,19.37
2018-11-10T21:13:41.264Z,17.60
2018-11-10T21:16:09.736Z,17.03
2018-11-10T21:18:38.189Z,13.57
2018-11-10T21:21:06.644Z,14.57
2018-11-10T21:23:35.104Z,13.07
2018-11-10T21:26:03.556Z,14.60
2018-11-10T21:28:32.047Z,16.10
2018-11-10T21:31:00.512Z,15.10
2018-11-10T21:33:28.963Z,22.63
2018-11-10T21:35:57.413Z,19.00
2018-11-10T21:38:25.851Z,17.70
2018-11-10T21:40:54.300Z,16.43
2018-11-10T21:43:22.868Z,16.47
2018-11-10T21:45:51.283Z,13.50
2018-11-10T21:48:19.746Z,13.37
2018-11-10T21:50:48.215Z,17.37
2018-11-10T21:53:16.711Z,18.27
2018-11-10T21:55:46.296Z,19.40
2018-11-10T21:58:15.604Z,20.13
2018-11-10T22:00:44.098Z,22.07
2018-11-10T22:03:12.545Z,22.03
2018-11-10T22:05:40.981Z,22.00
2018-11-10T22:08:09.432Z,20.23
2018-11-10T22:10:37.860Z,18.90
2018-11-10T22:13:06.374Z,18.63
2018-11-10T22:15:34.870Z,25.03
2018-11-10T22:18:03.341Z,27.60
2018-11-10T22:20:31.771Z,27.70
2018-11-10T22:23:00.235Z,29.07
2018-11-10T22:25:28.735Z,28.23
2018-11-10T22:27:57.192Z,29.33
2018-11-10T22:30:25.641Z,30.73
2018-11-10T22:32:54.080Z,29.70
2018-11-10T22:35:22.536Z,26.27
2018-11-10T22:37:51.007Z,24.13
2018-11-10T22:40:20.791Z,26.67
2018-11-10T22:42:49.237Z,25.63
2018-11-10T22:45:19.093Z,23.67
2018-11-10T22:47:47.606Z,28.27
2018-11-10T22:50:17.483Z,26.50
2018-11-10T22:52:45.936Z,24.87
2018-11-10T22:55:14.412Z,29.07
2018-11-10T22:57:42.839Z,27.93
2018-11-10T23:00:16.539Z,25.57
2018-11-10T23:02:49.371Z,25.80
2018-11-10T23:05:18.510Z,26.43
2018-11-10T23:07:46.950Z,25.90
2018-11-10T23:10:15.905Z,27.10
2018-11-10T23:12:45.485Z,31.07
2018-11-10T23:15:13.972Z,28.17
2018-11-10T23:17:42.445Z,25.07
2018-11-10T23:20:14.043Z,25.43
2018-11-10T23:22:42.572Z,29.10
2018-11-10T23:25:12.417Z,29.43
2018-11-10T23:27:40.876Z,27.47
2018-11-10T23:30:12.853Z,30.30
2018-11-10T23:32:41.681Z,33.50
2018-11-10T23:35:10.853Z,28.07
2018-11-10T23:37:40.244Z,24.07
2018-11-10T23:40:10.589Z,29.87
2018-11-10T23:42:39.164Z,25.40
2018-11-10T23:45:08.101Z,26.77
2018-11-10T23:47:36.923Z,28.00
2018-11-10T23:50:05.975Z,29.20
2018-11-10T23:52:34.444Z,29.27
2018-11-10T23:55:02.927Z,26.13
2018-11-10T23:57:31.384Z,29.30
2018-11-10T23:59:59.832Z,29.80
